sensor_id;sensor_type;location;lat;lon;timestamp;pressure;altitude;pressure_sealevel;temperature;humidity
22241;BME280;11289;52.524;13.694;2023-03-18T00:00:06;100476.44;;;8.62;48.94
22241;BME280;11289;52.524;13.694;2023-03-18T00:02:36;100483.47;;;8.68;48.67
22241;BME280;11289;52.524;13.694;2023-03-18T00:05:03;100477.09;;;8.59;48.59
22241;BME280;11289;52.524;13.694;2023-03-18T00:07:29;100487.19;;;8.63;48.19
22241;BME280;11289;52.524;13.694;2023-03-18T00:09:56;100479.03;;;8.58;48.32
22241;BME280;11289;52.524;13.694;2023-03-18T00:12:23;100487.03;;;8.60;48.50
22241;BME280;11289;52.524;13.694;2023-03-18T00:14:50;100479.34;;;8.57;47.69
22241;BME280;11289;52.524;13.694;2023-03-18T00:17:16;100479.34;;;8.57;48.58
22241;BME280;11289;52.524;13.694;2023-03-18T00:19:43;100493.06;;;8.62;48.55
22241;BME280;11289;52.524;13.694;2023-03-18T00:22:09;100493.34;;;8.51;47.63
22241;BME280;11289;52.524;13.694;2023-03-18T00:24:38;100478.38;;;8.52;47.72
22241;BME280;11289;52.524;13.694;2023-03-18T00:27:04;100492.69;;;8.54;47.65
22241;BME280;11289;52.524;13.694;2023-03-18T00:29:30;100482.28;;;8.51;48.09
22241;BME280;11289;52.524;13.694;2023-03-18T00:31:59;100471.34;;;8.46;47.71
22241;BME280;11289;52.524;13.694;2023-03-18T00:34:26;100489.94;;;8.54;48.17
22241;BME280;11289;52.524;13.694;2023-03-18T00:36:52;100479.00;;;8.49;47.88
22241;BME280;11289;52.524;13.694;2023-03-18T00:39:22;100485.03;;;8.51;48.30
22241;BME280;11289;52.524;13.694;2023-03-18T00:41:54;100480.63;;;8.50;48.34
22241;BME280;11289;52.524;13.694;2023-03-18T00:44:22;100473.47;;;8.49;47.89
22241;BME280;11289;52.524;13.694;2023-03-18T00:46:48;100471.66;;;8.45;48.17
22241;BME280;11289;52.524;13.694;2023-03-18T00:49:14;100469.09;;;8.48;48.00
22241;BME280;11289;52.524;13.694;2023-03-18T00:51:40;100459.78;;;8.44;48.08
22241;BME280;11289;52.524;13.694;2023-03-18T00:54:10;100474.09;;;8.46;48.17
22241;BME280;11289;52.524;13.694;2023-03-18T00:56:38;100471.47;;;8.41;48.16
22241;BME280;11289;52.524;13.694;2023-03-18T00:59:05;100468.19;;;8.39;47.93
22241;BME280;11289;52.524;13.694;2023-03-18T01:01:32;100472.59;;;8.40;47.92
22241;BME280;11289;52.524;13.694;2023-03-18T01:03:59;100462.81;;;8.34;48.38
22241;BME280;11289;52.524;13.694;2023-03-18T01:06:27;100436.69;;;8.17;48.13
22241;BME280;11289;52.524;13.694;2023-03-18T01:08:54;100481.34;;;8.33;48.49
22241;BME280;11289;52.524;13.694;2023-03-18T01:11:22;100475.31;;;8.31;48.58
22241;BME280;11289;52.524;13.694;2023-03-18T01:13:48;100472.53;;;8.23;48.24
22241;BME280;11289;52.524;13.694;2023-03-18T01:16:15;100456.06;;;8.17;48.90
22241;BME280;11289;52.524;13.694;2023-03-18T01:18:41;100468.13;;;8.22;49.00
22241;BME280;11289;52.524;13.694;2023-03-18T01:21:08;100469.56;;;8.19;48.55
22241;BME280;11289;52.524;13.694;2023-03-18T01:23:35;100472.66;;;8.17;48.68
22241;BME280;11289;52.524;13.694;2023-03-18T01:26:02;100461.41;;;8.14;48.84
22241;BME280;11289;52.524;13.694;2023-03-18T01:28:28;100457.34;;;8.11;48.88
22241;BME280;11289;52.524;13.694;2023-03-18T01:30:54;100464.50;;;8.12;48.56
22241;BME280;11289;52.524;13.694;2023-03-18T01:33:23;100449.31;;;8.01;48.65
22241;BME280;11289;52.524;13.694;2023-03-18T01:35:54;100457.97;;;8.08;49.11
22241;BME280;11289;52.524;13.694;2023-03-18T01:38:22;100459.09;;;8.07;48.88
22241;BME280;11289;52.524;13.694;2023-03-18T01:40:49;100463.34;;;8.05;49.45
22241;BME280;11289;52.524;13.694;2023-03-18T01:43:22;100440.03;;;7.97;49.35
22241;BME280;11289;52.524;13.694;2023-03-18T01:45:55;100455.34;;;8.03;49.30
22241;BME280;11289;52.524;13.694;2023-03-18T01:48:24;100455.97;;;8.00;49.37
22241;BME280;11289;52.524;13.694;2023-03-18T01:50:54;100460.38;;;8.01;49.31
22241;BME280;11289;52.524;13.694;2023-03-18T01:53:22;100439.16;;;7.88;48.35
22241;BME280;11289;52.524;13.694;2023-03-18T01:55:49;100449.47;;;7.96;49.37
22241;BME280;11289;52.524;13.694;2023-03-18T01:58:26;100455.81;;;7.96;49.14
22241;BME280;11289;52.524;13.694;2023-03-18T02:00:58;100438.41;;;7.96;49.53
22241;BME280;11289;52.524;13.694;2023-03-18T02:03:29;100449.47;;;7.96;49.63
22241;BME280;11289;52.524;13.694;2023-03-18T02:05:56;100434.13;;;7.90;48.39
22241;BME280;11289;52.524;13.694;2023-03-18T02:08:22;100431.34;;;7.90;49.00
22241;BME280;11289;52.524;13.694;2023-03-18T02:10:48;100432.00;;;7.87;49.18
22241;BME280;11289;52.524;13.694;2023-03-18T02:13:15;100433.50;;;7.93;49.51
22241;BME280;11289;52.524;13.694;2023-03-18T02:15:50;100438.69;;;7.94;49.40
22241;BME280;11289;52.524;13.694;2023-03-18T02:18:29;100450.91;;;7.93;49.19
22241;BME280;11289;52.524;13.694;2023-03-18T02:20:59;100451.22;;;7.92;49.29
22241;BME280;11289;52.524;13.694;2023-03-18T02:23:49;100448.94;;;7.94;49.25
22241;BME280;11289;52.524;13.694;2023-03-18T02:26:29;100446.81;;;7.91;49.16
22241;BME280;11289;52.524;13.694;2023-03-18T02:29:00;100441.63;;;7.89;49.14
22241;BME280;11289;52.524;13.694;2023-03-18T02:31:30;100443.56;;;7.89;49.26
22241;BME280;11289;52.524;13.694;2023-03-18T02:33:57;100442.25;;;7.86;49.67
22241;BME280;11289;52.524;13.694;2023-03-18T02:36:26;100441.63;;;7.89;49.85
22241;BME280;11289;52.524;13.694;2023-03-18T02:38:53;100437.72;;;7.90;49.83
22241;BME280;11289;52.524;13.694;2023-03-18T02:41:26;100443.56;;;7.89;48.85
22241;BME280;11289;52.524;13.694;2023-03-18T02:43:53;100448.25;;;7.88;49.23
22241;BME280;11289;52.524;13.694;2023-03-18T02:48:52;100435.53;;;7.78;49.79
22241;BME280;11289;52.524;13.694;2023-03-18T02:51:19;100437.03;;;7.84;49.69
22241;BME280;11289;52.524;13.694;2023-03-18T02:53:46;100431.63;;;7.79;49.06
22241;BME280;11289;52.524;13.694;2023-03-18T02:56:12;100440.13;;;7.83;49.33
22241;BME280;11289;52.524;13.694;2023-03-18T02:58:39;100441.25;;;7.82;49.39
22241;BME280;11289;52.524;13.694;2023-03-18T03:01:06;100443.22;;;7.81;49.79
22241;BME280;11289;52.524;13.694;2023-03-18T03:03:34;100431.63;;;7.79;49.61
22241;BME280;11289;52.524;13.694;2023-03-18T03:06:01;100441.56;;;7.80;49.81
22241;BME280;11289;52.524;13.694;2023-03-18T03:08:28;100427.69;;;7.72;49.07
22241;BME280;11289;52.524;13.694;2023-03-18T03:10:54;100427.69;;;7.72;49.25
22241;BME280;11289;52.524;13.694;2023-03-18T03:13:21;100423.28;;;7.71;49.27
22241;BME280;11289;52.524;13.694;2023-03-18T03:15:47;100425.06;;;7.66;49.73
22241;BME280;11289;52.524;13.694;2023-03-18T03:18:14;100436.94;;;7.67;48.62
22241;BME280;11289;52.524;13.694;2023-03-18T03:20:41;100422.13;;;7.63;49.13
22241;BME280;11289;52.524;13.694;2023-03-18T03:23:11;100412.44;;;7.52;49.44
22241;BME280;11289;52.524;13.694;2023-03-18T03:25:38;100411.44;;;7.47;49.52
22241;BME280;11289;52.524;13.694;2023-03-18T03:28:06;100438.19;;;7.61;49.63
22241;BME280;11289;52.524;13.694;2023-03-18T03:30:33;100440.44;;;7.59;49.79
22241;BME280;11289;52.524;13.694;2023-03-18T03:33:00;100427.59;;;7.54;49.56
22241;BME280;11289;52.524;13.694;2023-03-18T03:35:27;100441.09;;;7.56;49.56
22241;BME280;11289;52.524;13.694;2023-03-18T03:37:53;100443.03;;;7.55;49.62
22241;BME280;11289;52.524;13.694;2023-03-18T03:40:20;100437.13;;;7.48;49.56
22241;BME280;11289;52.524;13.694;2023-03-18T03:42:46;100452.13;;;7.56;49.41
22241;BME280;11289;52.524;13.694;2023-03-18T03:45:14;100453.78;;;7.57;49.79
22241;BME280;11289;52.524;13.694;2023-03-18T03:47:41;100451.00;;;7.57;49.93
22241;BME280;11289;52.524;13.694;2023-03-18T03:50:09;100452.44;;;7.54;50.20
22241;BME280;11289;52.524;13.694;2023-03-18T03:52:36;100446.72;;;7.50;49.81
22241;BME280;11289;52.524;13.694;2023-03-18T03:55:07;100461.22;;;7.56;50.07
22241;BME280;11289;52.524;13.694;2023-03-18T03:57:34;100447.25;;;7.53;49.82
22241;BME280;11289;52.524;13.694;2023-03-18T04:00:05;100449.88;;;7.58;49.38
22241;BME280;11289;52.524;13.694;2023-03-18T04:02:32;100430.16;;;7.50;49.45
22241;BME280;11289;52.524;13.694;2023-03-18T04:04:58;100446.59;;;7.56;49.84
22241;BME280;11289;52.524;13.694;2023-03-18T04:07:25;100439.75;;;7.53;49.68
22241;BME280;11289;52.524;13.694;2023-03-18T04:09:51;100441.72;;;7.53;49.91
22241;BME280;11289;52.524;13.694;2023-03-18T04:12:17;100446.59;;;7.56;49.69
22241;BME280;11289;52.524;13.694;2023-03-18T04:14:44;100448.03;;;7.53;49.83
22241;BME280;11289;52.524;13.694;2023-03-18T04:17:12;100457.13;;;7.54;49.23
22241;BME280;11289;52.524;13.694;2023-03-18T04:19:38;100449.00;;;7.48;49.74
22241;BME280;11289;52.524;13.694;2023-03-18T04:22:05;100451.13;;;7.52;49.62
22241;BME280;11289;52.524;13.694;2023-03-18T04:24:31;100441.44;;;7.40;49.80
22241;BME280;11289;52.524;13.694;2023-03-18T04:26:57;100459.56;;;7.46;49.64
22241;BME280;11289;52.524;13.694;2023-03-18T04:29:23;100447.19;;;7.44;49.53
22241;BME280;11289;52.524;13.694;2023-03-18T04:31:50;100459.56;;;7.46;49.28
22241;BME280;11289;52.524;13.694;2023-03-18T04:34:16;100457.91;;;7.45;49.83
22241;BME280;11289;52.524;13.694;2023-03-18T04:36:42;100468.44;;;7.43;49.97
22241;BME280;11289;52.524;13.694;2023-03-18T04:39:08;100466.31;;;7.40;50.39
22241;BME280;11289;52.524;13.694;2023-03-18T04:41:34;100445.91;;;7.27;49.58
22241;BME280;11289;52.524;13.694;2023-03-18T04:44:02;100449.50;;;7.28;49.95
22241;BME280;11289;52.524;13.694;2023-03-18T04:46:28;100473.28;;;7.38;49.91
22241;BME280;11289;52.524;13.694;2023-03-18T04:48:55;100474.72;;;7.35;49.97
22241;BME280;11289;52.524;13.694;2023-03-18T04:51:24;100472.59;;;7.32;50.14
22241;BME280;11289;52.524;13.694;2023-03-18T04:53:50;100480.38;;;7.30;49.81
22241;BME280;11289;52.524;13.694;2023-03-18T04:56:17;100480.06;;;7.31;49.82
22241;BME280;11289;52.524;13.694;2023-03-18T04:58:45;100490.28;;;7.31;49.75
22241;BME280;11289;52.524;13.694;2023-03-18T05:01:11;100489.47;;;7.30;49.86
22241;BME280;11289;52.524;13.694;2023-03-18T05:03:39;100482.75;;;7.23;49.49
22241;BME280;11289;52.524;13.694;2023-03-18T05:06:07;100487.63;;;7.26;49.92
22241;BME280;11289;52.524;13.694;2023-03-18T05:08:34;100488.25;;;7.23;49.95
22241;BME280;11289;52.524;13.694;2023-03-18T05:11:00;100473.75;;;7.17;50.10
22241;BME280;11289;52.524;13.694;2023-03-18T05:13:26;100475.88;;;7.20;50.16
22241;BME280;11289;52.524;13.694;2023-03-18T05:15:52;100477.84;;;7.20;50.15
22241;BME280;11289;52.524;13.694;2023-03-18T05:18:18;100476.72;;;7.21;50.14
22241;BME280;11289;52.524;13.694;2023-03-18T05:20:44;100477.66;;;7.16;49.93
22241;BME280;11289;52.524;13.694;2023-03-18T05:23:10;100461.63;;;7.04;50.46
22241;BME280;11289;52.524;13.694;2023-03-18T05:25:36;100473.34;;;7.10;50.44
22241;BME280;11289;52.524;13.694;2023-03-18T05:28:03;100472.56;;;7.09;50.45
22241;BME280;11289;52.524;13.694;2023-03-18T05:30:29;100469.31;;;7.07;50.54
22241;BME280;11289;52.524;13.694;2023-03-18T05:32:55;100479.09;;;7.13;50.72
22241;BME280;11289;52.524;13.694;2023-03-18T05:35:21;100472.06;;;7.07;50.97
22241;BME280;11289;52.524;13.694;2023-03-18T05:37:47;100466.16;;;7.00;50.98
22241;BME280;11289;52.524;13.694;2023-03-18T05:40:13;100467.88;;;6.96;51.50
22241;BME280;11289;52.524;13.694;2023-03-18T05:42:39;100464.59;;;6.94;50.91
22241;BME280;11289;52.524;13.694;2023-03-18T05:45:06;100479.31;;;7.03;51.27
22241;BME280;11289;52.524;13.694;2023-03-18T05:47:32;100475.22;;;7.01;50.91
22241;BME280;11289;52.524;13.694;2023-03-18T05:49:58;100491.47;;;7.02;51.19
22241;BME280;11289;52.524;13.694;2023-03-18T05:52:24;100491.78;;;7.01;51.19
22241;BME280;11289;52.524;13.694;2023-03-18T05:54:50;100479.56;;;6.93;51.86
22241;BME280;11289;52.524;13.694;2023-03-18T05:57:17;100487.09;;;7.01;51.39
22241;BME280;11289;52.524;13.694;2023-03-18T05:59:43;100508.53;;;7.04;51.55
22241;BME280;11289;52.524;13.694;2023-03-18T06:02:10;100504.16;;;7.03;51.39
22241;BME280;11289;52.524;13.694;2023-03-18T06:04:36;100502.03;;;7.00;51.28
22241;BME280;11289;52.524;13.694;2023-03-18T06:07:03;100509.38;;;7.05;51.48
22241;BME280;11289;52.524;13.694;2023-03-18T06:09:31;100501.41;;;7.03;51.44
22241;BME280;11289;52.524;13.694;2023-03-18T06:11:59;100505.78;;;7.04;51.62
22241;BME280;11289;52.524;13.694;2023-03-18T06:14:25;100505.50;;;7.06;51.26
22241;BME280;11289;52.524;13.694;2023-03-18T06:16:57;100502.94;;;7.09;51.33
22241;BME280;11289;52.524;13.694;2023-03-18T06:19:25;100503.72;;;7.10;51.07
22241;BME280;11289;52.524;13.694;2023-03-18T06:21:51;100498.03;;;7.06;50.69
22241;BME280;11289;52.524;13.694;2023-03-18T06:24:17;100495.44;;;7.10;50.54
22241;BME280;11289;52.524;13.694;2023-03-18T06:26:44;100504.25;;;7.12;51.14
22241;BME280;11289;52.524;13.694;2023-03-18T06:29:10;100493.00;;;7.08;51.18
22241;BME280;11289;52.524;13.694;2023-03-18T06:31:36;100494.53;;;7.14;50.67
22241;BME280;11289;52.524;13.694;2023-03-18T06:34:02;100497.00;;;7.16;50.78
22241;BME280;11289;52.524;13.694;2023-03-18T06:36:29;100494.81;;;7.13;50.76
22241;BME280;11289;52.524;13.694;2023-03-18T06:38:56;100510.97;;;7.20;51.10
22241;BME280;11289;52.524;13.694;2023-03-18T06:41:23;100514.22;;;7.22;51.22
22241;BME280;11289;52.524;13.694;2023-03-18T06:43:49;100507.91;;;7.21;51.40
22241;BME280;11289;52.524;13.694;2023-03-18T06:46:17;100510.88;;;7.25;51.59
22241;BME280;11289;52.524;13.694;2023-03-18T06:48:43;100495.53;;;7.19;51.60
22241;BME280;11289;52.524;13.694;2023-03-18T06:51:09;100483.91;;;7.08;51.28
22241;BME280;11289;52.524;13.694;2023-03-18T06:53:36;100521.78;;;7.30;51.42
22241;BME280;11289;52.524;13.694;2023-03-18T06:56:03;100513.19;;;7.31;51.12
22241;BME280;11289;52.524;13.694;2023-03-18T06:58:30;100516.91;;;7.27;51.16
22241;BME280;11289;52.524;13.694;2023-03-18T07:00:57;100502.38;;;7.21;51.31
22241;BME280;11289;52.524;13.694;2023-03-18T07:03:23;100507.97;;;7.30;51.27
22241;BME280;11289;52.524;13.694;2023-03-18T07:05:51;100517.59;;;7.32;51.31
22241;BME280;11289;52.524;13.694;2023-03-18T07:08:17;100529.75;;;7.45;51.04
22241;BME280;11289;52.524;13.694;2023-03-18T07:10:43;100532.38;;;7.50;51.22
22241;BME280;11289;52.524;13.694;2023-03-18T07:13:09;100529.91;;;7.49;51.18
22241;BME280;11289;52.524;13.694;2023-03-18T07:15:35;100530.75;;;7.49;50.80
22241;BME280;11289;52.524;13.694;2023-03-18T07:18:03;100531.31;;;7.60;51.25
22241;BME280;11289;52.524;13.694;2023-03-18T07:20:31;100527.44;;;7.61;51.17
22241;BME280;11289;52.524;13.694;2023-03-18T07:22:57;100515.69;;;7.56;50.93
22241;BME280;11289;52.524;13.694;2023-03-18T07:25:24;100527.44;;;7.61;50.67
22241;BME280;11289;52.524;13.694;2023-03-18T07:27:50;100536.97;;;7.78;50.94
22241;BME280;11289;52.524;13.694;2023-03-18T07:30:16;100538.78;;;7.82;51.15
22241;BME280;11289;52.524;13.694;2023-03-18T07:32:43;100546.97;;;7.88;50.70
22241;BME280;11289;52.524;13.694;2023-03-18T07:35:10;100548.47;;;7.94;50.61
22241;BME280;11289;52.524;13.694;2023-03-18T07:37:39;100543.63;;;7.99;51.30
22241;BME280;11289;52.524;13.694;2023-03-18T07:40:07;100558.69;;;8.16;51.02
22241;BME280;11289;52.524;13.694;2023-03-18T07:42:34;100556.31;;;8.23;50.29
22241;BME280;11289;52.524;13.694;2023-03-18T07:45:00;100535.94;;;8.19;50.52
22241;BME280;11289;52.524;13.694;2023-03-18T07:47:26;100547.13;;;8.36;50.21
22241;BME280;11289;52.524;13.694;2023-03-18T07:49:52;100550.53;;;8.42;50.31
22241;BME280;11289;52.524;13.694;2023-03-18T07:52:18;100552.41;;;8.47;49.45
22241;BME280;11289;52.524;13.694;2023-03-18T07:54:44;100561.38;;;8.52;50.17
22241;BME280;11289;52.524;13.694;2023-03-18T07:57:10;100549.69;;;8.56;50.33
22241;BME280;11289;52.524;13.694;2023-03-18T07:59:36;100556.69;;;8.62;49.97
22241;BME280;11289;52.524;13.694;2023-03-18T08:02:02;100559.63;;;8.65;50.33
22241;BME280;11289;52.524;13.694;2023-03-18T08:04:32;100574.19;;;8.80;50.26
22241;BME280;11289;52.524;13.694;2023-03-18T08:06:58;100547.00;;;8.82;50.05
22241;BME280;11289;52.524;13.694;2023-03-18T08:09:45;100563.50;;;9.04;49.46
22241;BME280;11289;52.524;13.694;2023-03-18T08:12:31;100571.72;;;9.18;48.89
22241;BME280;11289;52.524;13.694;2023-03-18T08:15:18;100565.06;;;9.28;48.76
22241;BME280;11289;52.524;13.694;2023-03-18T08:18:05;100588.88;;;9.55;48.53
22241;BME280;11289;52.524;13.694;2023-03-18T08:20:32;100569.66;;;9.59;48.62
22241;BME280;11289;52.524;13.694;2023-03-18T08:23:16;100587.75;;;9.91;48.81
22241;BME280;11289;52.524;13.694;2023-03-18T08:26:03;100574.84;;;10.04;48.59
22241;BME280;11289;52.524;13.694;2023-03-18T08:28:49;100579.56;;;10.30;47.71
22241;BME280;11289;52.524;13.694;2023-03-18T08:31:36;100583.31;;;10.43;47.31
22241;BME280;11289;52.524;13.694;2023-03-18T08:34:22;100578.19;;;10.62;47.09
22241;BME280;11289;52.524;13.694;2023-03-18T08:37:09;100585.94;;;10.87;47.03
22241;BME280;11289;52.524;13.694;2023-03-18T08:39:55;100594.31;;;11.08;46.25
22241;BME280;11289;52.524;13.694;2023-03-18T08:42:41;100601.28;;;11.23;45.94
22241;BME280;11289;52.524;13.694;2023-03-18T08:45:28;100602.25;;;11.48;45.96
22241;BME280;11289;52.524;13.694;2023-03-18T08:48:14;100603.50;;;11.80;45.33
22241;BME280;11289;52.524;13.694;2023-03-18T08:51:05;100606.22;;;12.10;45.69
22241;BME280;11289;52.524;13.694;2023-03-18T08:53:54;100604.03;;;12.49;44.26
22241;BME280;11289;52.524;13.694;2023-03-18T08:56:30;100588.38;;;12.57;43.16
22241;BME280;11289;52.524;13.694;2023-03-18T08:59:14;100579.34;;;12.60;43.98
22241;BME280;11289;52.524;13.694;2023-03-18T09:02:03;100597.63;;;12.82;43.56
22241;BME280;11289;52.524;13.694;2023-03-18T09:04:50;100605.16;;;12.94;43.20
22241;BME280;11289;52.524;13.694;2023-03-18T09:07:28;100597.94;;;13.05;43.52
22241;BME280;11289;52.524;13.694;2023-03-18T09:10:14;100606.44;;;13.21;43.61
22241;BME280;11289;52.524;13.694;2023-03-18T09:13:00;100595.41;;;13.25;43.32
22241;BME280;11289;52.524;13.694;2023-03-18T09:15:27;100587.84;;;13.26;43.43
22241;BME280;11289;52.524;13.694;2023-03-18T09:18:11;100583.19;;;13.30;43.40
22241;BME280;11289;52.524;13.694;2023-03-18T09:20:57;100596.94;;;13.35;43.21
22241;BME280;11289;52.524;13.694;2023-03-18T09:23:43;100598.28;;;13.29;43.31
22241;BME280;11289;52.524;13.694;2023-03-18T09:26:30;100599.25;;;13.20;43.92
22241;BME280;11289;52.524;13.694;2023-03-18T09:28:58;100602.03;;;13.20;43.62
22241;BME280;11289;52.524;13.694;2023-03-18T09:31:24;100614.22;;;13.28;43.58
22241;BME280;11289;52.524;13.694;2023-03-18T09:33:50;100621.44;;;13.29;43.68
22241;BME280;11289;52.524;13.694;2023-03-18T09:36:17;100609.81;;;13.15;43.94
22241;BME280;11289;52.524;13.694;2023-03-18T09:38:44;100621.19;;;13.22;44.03
22241;BME280;11289;52.524;13.694;2023-03-18T09:41:16;100606.13;;;13.35;44.14
22241;BME280;11289;52.524;13.694;2023-03-18T09:43:52;100622.81;;;13.60;43.96
22241;BME280;11289;52.524;13.694;2023-03-18T09:46:33;100618.09;;;13.89;43.99
22241;BME280;11289;52.524;13.694;2023-03-18T09:49:29;100615.22;;;14.14;43.61
22241;BME280;11289;52.524;13.694;2023-03-18T09:54:42;100610.22;;;14.63;42.42
22241;BME280;11289;52.524;13.694;2023-03-18T09:57:21;100624.59;;;14.94;41.23
22241;BME280;11289;52.524;13.694;2023-03-18T09:59:57;100613.69;;;14.89;41.96
22241;BME280;11289;52.524;13.694;2023-03-18T10:02:32;100635.69;;;15.06;42.16
22241;BME280;11289;52.524;13.694;2023-03-18T10:05:03;100629.97;;;15.35;42.73
22241;BME280;11289;52.524;13.694;2023-03-18T10:07:40;100624.69;;;15.65;41.82
22241;BME280;11289;52.524;13.694;2023-03-18T10:12:49;100623.56;;;15.86;40.96
22241;BME280;11289;52.524;13.694;2023-03-18T10:15:22;100613.41;;;15.97;40.85
22241;BME280;11289;52.524;13.694;2023-03-18T10:18:01;100629.13;;;16.21;40.45
22241;BME280;11289;52.524;13.694;2023-03-18T10:23:30;100628.06;;;16.29;39.51
22241;BME280;11289;52.524;13.694;2023-03-18T10:26:13;100623.34;;;16.33;39.77
22241;BME280;11289;52.524;13.694;2023-03-18T10:34:20;100620.88;;;16.94;40.88
22241;BME280;11289;52.524;13.694;2023-03-18T10:37:09;100621.41;;;17.27;39.29
22241;BME280;11289;52.524;13.694;2023-03-18T10:39:40;100617.66;;;17.42;38.04
22241;BME280;11289;52.524;13.694;2023-03-18T10:42:27;100609.75;;;17.51;37.74
22241;BME280;11289;52.524;13.694;2023-03-18T10:45:06;100616.34;;;17.36;38.05
22241;BME280;11289;52.524;13.694;2023-03-18T10:47:36;100605.06;;;17.32;38.50
22241;BME280;11289;52.524;13.694;2023-03-18T10:50:15;100628.66;;;17.54;38.53
22241;BME280;11289;52.524;13.694;2023-03-18T10:55:29;100618.16;;;17.78;38.54
22241;BME280;11289;52.524;13.694;2023-03-18T10:57:56;100614.28;;;17.86;38.84
22241;BME280;11289;52.524;13.694;2023-03-18T11:00:31;100594.63;;;17.86;38.07
22241;BME280;11289;52.524;13.694;2023-03-18T11:02:58;100610.34;;;17.91;38.03
22241;BME280;11289;52.524;13.694;2023-03-18T11:05:27;100619.06;;;17.86;38.04
22241;BME280;11289;52.524;13.694;2023-03-18T11:08:05;100617.03;;;17.83;38.42
22241;BME280;11289;52.524;13.694;2023-03-18T11:10:44;100604.63;;;17.87;39.20
22241;BME280;11289;52.524;13.694;2023-03-18T11:13:16;100616.56;;;18.07;39.12
22241;BME280;11289;52.524;13.694;2023-03-18T11:15:51;100608.69;;;18.20;38.49
22241;BME280;11289;52.524;13.694;2023-03-18T11:18:24;100610.59;;;18.47;38.80
22241;BME280;11289;52.524;13.694;2023-03-18T11:20:56;100611.59;;;18.65;38.50
22241;BME280;11289;52.524;13.694;2023-03-18T11:23:36;100602.47;;;18.79;38.15
22241;BME280;11289;52.524;13.694;2023-03-18T11:26:25;100597.78;;;18.90;37.78
22241;BME280;11289;52.524;13.694;2023-03-18T11:29:20;100593.31;;;18.86;37.66
22241;BME280;11289;52.524;13.694;2023-03-18T11:31:54;100608.44;;;19.15;37.89
22241;BME280;11289;52.524;13.694;2023-03-18T11:34:31;100609.34;;;19.30;38.18
22241;BME280;11289;52.524;13.694;2023-03-18T11:37:03;100591.69;;;19.33;37.41
22241;BME280;11289;52.524;13.694;2023-03-18T11:39:39;100596.16;;;19.38;36.79
22241;BME280;11289;52.524;13.694;2023-03-18T11:42:17;100597.34;;;19.33;36.71
22241;BME280;11289;52.524;13.694;2023-03-18T11:44:56;100612.94;;;19.23;36.56
22241;BME280;11289;52.524;13.694;2023-03-18T11:47:27;100610.13;;;19.23;37.28
22241;BME280;11289;52.524;13.694;2023-03-18T11:49:55;100600.91;;;19.26;37.16
22241;BME280;11289;52.524;13.694;2023-03-18T11:55:21;100595.84;;;19.54;37.55
22241;BME280;11289;52.524;13.694;2023-03-18T12:01:05;100587.59;;;19.86;36.48
22241;BME280;11289;52.524;13.694;2023-03-18T12:06:40;100608.19;;;20.01;35.61
22241;BME280;11289;52.524;13.694;2023-03-18T12:09:39;100613.09;;;20.22;35.93
22241;BME280;11289;52.524;13.694;2023-03-18T12:17:31;100605.84;;;20.21;36.82
22241;BME280;11289;52.524;13.694;2023-03-18T12:23:09;100614.78;;;20.45;36.49
22241;BME280;11289;52.524;13.694;2023-03-18T12:26:05;100607.13;;;20.45;36.35
22241;BME280;11289;52.524;13.694;2023-03-18T12:31:59;100605.13;;;20.53;36.99
22241;BME280;11289;52.524;13.694;2023-03-18T12:45:49;100605.91;;;20.43;38.46
22241;BME280;11289;52.524;13.694;2023-03-18T12:48:23;100607.94;;;20.42;38.53
22241;BME280;11289;52.524;13.694;2023-03-18T12:51:06;100602.69;;;20.37;38.50
22241;BME280;11289;52.524;13.694;2023-03-18T12:53:36;100607.91;;;20.28;38.65
22241;BME280;11289;52.524;13.694;2023-03-18T12:56:18;100615.94;;;20.33;39.30
22241;BME280;11289;52.524;13.694;2023-03-18T12:58:57;100613.94;;;20.33;39.69
22241;BME280;11289;52.524;13.694;2023-03-18T13:01:48;100606.72;;;20.47;39.56
22241;BME280;11289;52.524;13.694;2023-03-18T13:04:20;100614.38;;;20.50;39.91
22241;BME280;11289;52.524;13.694;2023-03-18T13:07:11;100600.72;;;20.63;39.44
22241;BME280;11289;52.524;13.694;2023-03-18T13:09:45;100595.91;;;20.70;39.24
22241;BME280;11289;52.524;13.694;2023-03-18T13:12:19;100601.97;;;20.69;38.82
22241;BME280;11289;52.524;13.694;2023-03-18T13:17:40;100605.16;;;20.60;38.93
22241;BME280;11289;52.524;13.694;2023-03-18T13:20:18;100603.13;;;20.64;38.93
22241;BME280;11289;52.524;13.694;2023-03-18T13:30:55;100602.78;;;20.69;39.76
22241;BME280;11289;52.524;13.694;2023-03-18T13:44:46;100576.13;;;20.56;40.63
22241;BME280;11289;52.524;13.694;2023-03-18T13:47:18;100581.00;;;20.66;40.15
22241;BME280;11289;52.524;13.694;2023-03-18T13:49:46;100581.84;;;20.67;40.52
22241;BME280;11289;52.524;13.694;2023-03-18T13:52:23;100588.25;;;20.64;40.11
22241;BME280;11289;52.524;13.694;2023-03-18T13:54:50;100583.38;;;20.46;40.65
22241;BME280;11289;52.524;13.694;2023-03-18T13:57:31;100590.59;;;20.29;41.12
22241;BME280;11289;52.524;13.694;2023-03-18T14:03:02;100584.97;;;20.40;40.94
22241;BME280;11289;52.524;13.694;2023-03-18T14:05:34;100587.78;;;20.37;41.51
22241;BME280;11289;52.524;13.694;2023-03-18T14:14:00;100585.78;;;20.51;41.48
22241;BME280;11289;52.524;13.694;2023-03-18T14:22:03;100583.78;;;20.59;41.43
22241;BME280;11289;52.524;13.694;2023-03-18T14:24:30;100582.59;;;20.57;40.94
22241;BME280;11289;52.524;13.694;2023-03-18T14:29:40;100571.66;;;20.37;41.22
22241;BME280;11289;52.524;13.694;2023-03-18T14:34:59;100574.03;;;20.17;41.89
22241;BME280;11289;52.524;13.694;2023-03-18T14:37:30;100569.53;;;19.94;42.19